Terminal Aerodrome Forecast
Issued by NWS Denver/Boulder, CO

Home | Current Version | Previous Version | Text Only | Print | Product List | Glossary On
Versions: 1 2 3 4 5 6 7 8 9 10 11 12 13 14 15 16 17 18 19 20 21 22 23 24 25 26 27 28 29 30 31 32 33 34 35 36 37 38 39 40 41 42 43 44 45 46 47 48 49 50
000
FTUS45 KBOU 281131
TAFDEN
TAF
KDEN 281131Z 2812/2918 25007KT P6SM FEW120 SCT200
     FM281500 33006KT P6SM FEW080 SCT120
     FM281800 03015G26KT P6SM SCT060 BKN120
     FM282100 05016G28KT P6SM -SHRA SCT014 OVC045
      TEMPO 2823/2901 3SM -SHRASN OVC010
     FM290100 03013KT 3SM -SN BR BKN008 OVC014
      TEMPO 2901/2905 3/4SM -SN BR OVC005
     FM291400 01010KT 2SM -SN BR BKN006 OVC012=

USA.gov is the U.S. government's official web portal to all federal, state and local government web resources and services.